.
WxDataArchive / Data Records for 2012-08-27
2012-08-26 August 2012 2012-08-28

Data Records for Monday, 27 August 2012

Time	Temp	Chill	HIndex	Humid	Dewpt	 Wind 	HiWind	WindDir	Rain 	Barom 
-----	----	-----	------	-----	-----	------	------	-------	-----	----- 
00:00	74.9	74.9	74.9	80	68.3	0	0	---	0.00	29.984 
00:05	74.9	74.9	74.9	80	68.3	0	0	---	0.00	29.984 
00:10	74.7	74.7	74.7	80	68.1	0	0	---	0.00	29.984 
00:15	74.7	74.7	74.7	81	68.5	0	0	---	0.00	29.981 
00:20	74.7	74.7	74.7	81	68.5	0	0	---	0.00	29.981 
00:25	74.7	74.7	74.7	81	68.5	0	0	---	0.00	29.981 
00:30	74.6	74.6	74.6	81	68.4	0	0	---	0.00	29.981 
00:35	74.6	74.6	74.6	81	68.4	0	0	---	0.00	29.981 
00:40	74.7	74.7	74.7	80	68.1	0	1	292	0.00	29.981 
00:45	74.7	74.7	74.7	80	68.1	0	0	---	0.00	29.982 
00:50	74.7	74.7	74.7	80	68.1	0	0	---	0.00	29.982 
00:55	74.9	74.9	74.9	79	67.9	0	0	---	0.00	29.982 
01:00	74.9	74.9	74.9	79	67.9	0	1	292	0.00	29.979 
01:05	74.9	74.9	74.9	79	67.9	0	1	292	0.00	29.979 
01:10	74.9	74.9	74.9	80	68.3	0	1	292	0.00	29.979 
01:15	74.9	74.9	74.9	80	68.3	0	1	292	0.00	29.970 
01:20	74.7	74.7	74.7	80	68.1	0	0	---	0.00	29.970 
01:25	74.7	74.7	74.7	80	68.1	0	0	---	0.00	29.970 
01:30	74.6	74.6	74.6	80	68.0	0	0	---	0.00	29.968 
01:35	74.6	74.6	74.6	81	68.4	0	0	---	0.00	29.968 
01:40	74.4	74.4	74.4	81	68.2	0	0	---	0.00	29.968 
01:45	74.4	74.4	74.4	81	68.2	0	0	---	0.00	29.968 
01:50	74.2	74.2	74.2	81	68.0	0	0	---	0.00	29.968 
01:55	74.2	74.2	74.2	81	68.0	0	0	---	0.00	29.968 
02:00	74.2	74.2	74.2	83	68.7	0	0	---	0.00	29.976 
02:05	74.0	74.0	74.0	83	68.5	0	0	---	0.00	29.976 
02:10	73.9	73.9	73.9	83	68.4	1	6	90	0.00	29.976 
02:15	73.9	73.9	73.9	84	68.7	0	1	90	0.00	29.966 
02:20	73.9	73.9	73.9	84	68.7	0	0	---	0.00	29.966 
02:25	73.7	73.7	73.7	84	68.6	0	1	90	0.00	29.966 
02:30	73.5	73.5	73.5	85	68.7	0	1	90	0.00	29.959 
02:35	73.5	73.5	73.5	85	68.7	0	0	---	0.00	29.959 
02:40	73.3	73.3	73.3	85	68.5	0	1	90	0.00	29.959 
02:45	73.3	73.3	73.3	85	68.5	0	1	90	0.00	29.954 
02:50	73.3	73.3	73.3	85	68.5	0	0	---	0.00	29.954 
02:55	73.3	73.3	73.3	85	68.5	0	0	---	0.00	29.954 
03:00	73.3	73.3	73.3	86	68.8	0	0	---	0.01	29.952 
03:05	73.3	73.3	73.3	86	68.8	0	0	---	0.01	29.952 
03:10	73.2	73.2	73.2	87	69.1	0	0	---	0.00	29.952 
03:15	72.8	72.8	72.8	87	68.7	0	0	---	0.01	29.951 
03:20	72.7	72.7	72.7	88	68.9	0	0	---	0.00	29.951 
03:25	72.5	72.5	72.5	88	68.7	0	0	---	0.00	29.951 
03:30	72.3	72.3	72.3	89	68.9	0	0	---	0.00	29.953 
03:35	72.1	72.1	72.1	89	68.7	0	0	---	0.00	29.953 
03:40	72.1	72.1	72.1	89	68.7	0	0	---	0.00	29.953 
03:45	72.1	72.1	72.1	90	69.0	0	0	---	0.00	29.954 
03:50	72.0	72.0	72.0	90	68.9	0	0	---	0.00	29.954 
03:55	72.1	72.1	72.1	91	69.3	0	0	---	0.00	29.954 
04:00	72.0	72.0	72.0	91	69.2	0	0	---	0.00	29.957 
04:05	72.0	72.0	72.0	91	69.2	0	0	---	0.01	29.957 
04:10	72.1	72.1	72.1	92	69.6	0	0	---	0.00	29.957 
04:15	72.1	72.1	72.1	92	69.6	0	0	---	0.01	29.968 
04:20	72.1	72.1	72.1	92	69.6	0	0	---	0.00	29.968 
04:25	72.1	72.1	72.1	92	69.6	0	0	---	0.00	29.968 
04:30	72.0	72.0	72.0	92	69.5	0	0	---	0.01	29.967 
04:35	72.0	72.0	72.0	92	69.5	0	0	---	0.00	29.967 
04:40	71.8	71.8	71.8	92	69.3	0	0	---	0.00	29.967 
04:45	71.8	71.8	71.8	92	69.3	0	0	---	0.00	29.957 
04:50	71.8	71.8	71.8	92	69.3	0	0	---	0.00	29.957 
04:55	71.6	71.6	71.6	93	69.5	0	0	---	0.00	29.957 
05:00	71.6	71.6	71.6	93	69.5	0	0	---	0.01	29.950 
05:05	71.6	71.6	71.6	93	69.5	0	0	---	0.00	29.950 
05:10	71.8	71.8	71.8	93	69.7	0	1	90	0.01	29.950 
05:15	71.8	71.8	71.8	93	69.7	0	0	---	0.02	29.953 
05:20	71.8	71.8	71.8	93	69.7	0	0	---	0.02	29.953 
05:25	71.8	71.8	71.8	93	69.7	0	0	---	0.02	29.953 
05:30	71.8	71.8	71.8	94	70.0	0	0	---	0.02	29.955 
05:35	71.6	71.6	71.6	94	69.8	0	0	---	0.02	29.955 
05:40	71.6	71.6	71.6	94	69.8	0	0	---	0.02	29.955 
05:45	71.6	71.6	71.6	94	69.8	0	0	---	0.01	29.960 
05:50	71.6	71.6	71.6	94	69.8	0	0	---	0.01	29.960 
05:55	71.6	71.6	71.6	94	69.8	0	0	---	0.01	29.960 
06:00	71.5	71.5	71.5	94	69.7	0	0	---	0.03	29.952 
06:05	71.6	71.6	71.6	94	69.8	0	2	90	0.02	29.952 
06:10	71.6	71.6	71.6	94	69.8	0	2	90	0.01	29.952 
06:15	71.5	71.5	71.5	94	69.7	0	2	90	0.02	29.945 
06:20	71.5	71.5	71.5	94	69.7	0	1	90	0.02	29.945 
06:25	71.5	71.5	71.5	94	69.7	0	1	90	0.02	29.945 
06:30	71.5	71.5	71.5	94	69.7	0	1	90	0.00	29.944 
06:35	71.3	71.3	71.3	94	69.5	0	1	90	0.01	29.944 
06:40	71.3	71.3	71.3	95	69.8	0	1	90	0.00	29.944 
06:45	71.1	71.1	71.1	95	69.6	0	2	90	0.01	29.943 
06:50	70.9	70.9	70.9	94	69.1	0	1	90	0.01	29.943 
06:55	70.9	70.9	70.9	95	69.4	0	1	90	0.02	29.943 
07:00	70.8	70.8	70.8	95	69.3	0	2	90	0.01	29.941 
07:05	70.8	70.8	70.8	95	69.3	0	1	90	0.02	29.941 
07:10	70.8	70.8	70.8	95	69.3	0	3	90	0.00	29.941 
07:15	70.6	70.6	70.6	95	69.1	0	1	90	0.01	29.948 
07:20	70.6	70.6	70.6	95	69.1	0	3	90	0.00	29.948 
07:25	70.4	70.4	70.4	95	68.9	0	3	90	0.01	29.948 
07:30	70.4	70.4	70.4	95	68.9	1	3	90	0.00	29.945 
07:35	70.4	70.4	70.4	95	68.9	1	3	90	0.00	29.945 
07:40	70.4	70.4	70.4	95	68.9	1	4	90	0.00	29.945 
07:45	70.4	70.4	70.4	95	68.9	0	2	90	0.00	29.946 
07:50	70.4	70.4	70.4	95	68.9	0	2	90	0.01	29.946 
07:55	70.4	70.4	70.4	95	68.9	0	2	90	0.00	29.946 
08:00	70.4	70.4	70.4	95	68.9	0	1	90	0.00	29.946 
08:05	70.4	70.4	70.4	95	68.9	0	0	---	0.00	29.946 
08:10	70.3	70.3	70.3	95	68.8	0	1	90	0.00	29.946 
08:15	70.4	70.4	70.4	95	68.9	0	1	90	0.00	29.949 
08:20	70.4	70.4	70.4	95	68.9	0	2	90	0.00	29.949 
08:25	70.4	70.4	70.4	95	68.9	0	2	90	0.00	29.949 
08:30	70.4	70.4	70.4	95	68.9	0	1	90	0.02	29.948 
08:35	70.4	70.4	70.4	95	68.9	0	2	90	0.01	29.948 
08:40	70.4	70.4	70.4	95	68.9	0	3	90	0.00	29.948 
08:45	70.6	70.6	70.6	96	69.4	0	1	90	0.00	29.950 
08:50	70.6	70.6	70.6	96	69.4	0	1	90	0.00	29.950 
08:55	70.6	70.6	70.6	96	69.4	0	1	90	0.00	29.950 
09:00	70.6	70.6	70.6	96	69.4	0	2	90	0.00	29.950 
09:05	70.8	70.8	70.8	96	69.6	0	1	90	0.00	29.950 
09:10	70.8	70.8	70.8	96	69.6	0	2	22	0.00	29.950 
09:15	70.9	70.9	70.9	96	69.7	1	4	22	0.00	29.951 
09:20	70.9	70.9	70.9	96	69.7	0	2	270	0.00	29.951 
09:25	70.9	70.9	70.9	96	69.7	1	3	248	0.00	29.951 
09:30	71.1	71.1	71.1	96	69.9	0	3	248	0.00	29.953 
09:35	71.1	71.1	71.1	96	69.9	0	1	248	0.00	29.953 
09:40	71.3	71.3	71.3	96	70.1	0	2	248	0.00	29.953 
09:45	71.3	71.3	71.3	96	70.1	0	2	248	0.00	29.950 
09:50	71.5	71.5	71.5	96	70.3	0	2	248	0.00	29.950 
09:55	71.5	71.5	71.5	96	70.3	0	2	248	0.00	29.950 
10:00	71.6	71.6	71.6	96	70.4	0	2	248	0.00	29.949 
10:05	71.6	71.6	71.6	96	70.4	1	2	248	0.00	29.949 
10:10	71.6	71.6	71.6	96	70.4	0	3	248	0.00	29.949 
10:15	71.8	71.8	71.8	96	70.6	0	2	248	0.00	29.952 
10:20	71.8	71.8	71.8	96	70.6	0	2	248	0.00	29.952 
10:25	71.8	71.8	71.8	96	70.6	0	3	248	0.00	29.952 
10:30	71.8	71.8	71.8	96	70.6	0	2	248	0.00	29.954 
10:35	72.0	72.0	72.0	96	70.8	0	2	248	0.01	29.954 
10:40	72.0	72.0	72.0	96	70.8	0	2	248	0.00	29.954 
10:45	72.1	72.1	72.1	96	70.9	0	1	248	0.00	29.954 
10:50	72.1	72.1	72.1	96	70.9	0	2	248	0.01	29.954 
10:55	72.1	72.1	72.1	96	70.9	0	2	248	0.00	29.954 
11:00	72.3	72.3	72.3	96	71.1	0	2	248	0.00	29.952 
11:05	72.3	72.3	72.3	96	71.1	0	2	248	0.00	29.952 
11:10	72.3	72.3	72.3	96	71.1	0	2	248	0.00	29.952 
11:15	72.3	72.3	72.3	96	71.1	0	1	248	0.00	29.955 
11:20	72.5	72.5	72.5	96	71.3	0	1	248	0.00	29.955 
11:25	72.3	72.3	72.3	96	71.1	1	3	248	0.00	29.955 
11:30	72.1	72.1	72.1	96	70.9	1	2	248	0.00	29.962 
11:35	72.1	72.1	72.1	96	70.9	2	4	270	0.00	29.962 
11:40	72.3	72.3	72.3	96	71.1	1	2	292	0.00	29.962 
11:45	72.1	72.1	72.1	95	70.6	1	4	292	0.00	29.963 
11:50	72.0	72.0	72.0	95	70.5	1	2	292	0.00	29.963 
11:55	72.0	72.0	72.0	95	70.5	1	3	292	0.00	29.963 
12:00	72.1	72.1	72.1	95	70.6	0	2	292	0.00	29.968 
12:05	72.1	72.1	72.1	95	70.6	1	3	292	0.00	29.968 
12:10	72.1	72.1	72.1	95	70.6	1	4	0	0.00	29.968 
12:15	72.3	72.3	72.3	95	70.8	1	3	315	0.00	29.970 
12:20	72.7	72.7	72.7	95	71.2	0	2	315	0.00	29.970 
12:25	73.3	73.3	73.3	94	71.5	1	3	315	0.00	29.970 
12:30	73.7	73.7	73.7	93	71.5	1	5	315	0.00	29.963 
12:35	73.9	73.9	73.9	93	71.7	0	3	315	0.00	29.963 
12:40	74.7	74.7	74.7	92	72.2	1	3	338	0.00	29.963 
12:45	75.1	75.1	74.4	89	71.6	1	4	270	0.00	29.961 
12:50	75.4	75.4	75.3	87	71.2	1	5	292	0.00	29.961 
12:55	76.1	76.1	76.8	84	70.9	1	4	292	0.00	29.961 
13:00	76.7	76.7	77.9	83	71.1	0	3	45	0.00	29.959 
13:05	76.8	76.8	78.2	81	70.5	1	4	0	0.00	29.959 
13:10	77.4	77.4	79.2	81	71.1	0	3	315	0.00	29.959 
13:15	77.9	77.9	80.1	77	70.1	1	3	292	0.00	29.960 
13:20	77.7	77.7	79.7	76	69.5	1	4	292	0.00	29.960 
13:25	78.3	78.3	80.8	78	70.9	0	4	292	0.00	29.960 
13:30	78.3	78.3	80.6	74	69.3	1	4	292	0.00	29.960 
13:35	78.3	78.3	80.6	74	69.3	1	3	338	0.00	29.960 
13:40	78.3	78.3	80.6	74	69.3	1	4	338	0.00	29.960 
13:45	78.5	78.5	80.9	74	69.5	2	6	315	0.00	29.960 
13:50	79.2	79.2	82.0	73	69.8	1	3	270	0.00	29.960 
13:55	79.4	79.4	82.2	72	69.6	1	3	270	0.00	29.960 
14:00	79.8	79.8	82.9	72	69.9	0	4	270	0.00	29.959 
14:05	79.6	79.6	82.3	70	68.9	1	5	248	0.00	29.959 
14:10	80.3	80.3	83.7	72	70.4	1	3	292	0.00	29.959 
14:15	80.3	80.3	83.3	69	69.2	1	4	292	0.00	29.962 
14:20	80.5	80.5	83.5	68	68.9	1	4	315	0.00	29.962 
14:25	80.7	80.7	83.7	67	68.7	1	4	315	0.00	29.962 
14:30	80.9	80.9	83.8	66	68.4	2	4	315	0.00	29.959 
14:35	81.4	81.4	85.0	68	69.8	1	4	292	0.00	29.959 
14:40	81.4	81.4	84.3	64	68.0	2	9	270	0.00	29.959 
14:45	81.2	81.2	84.1	65	68.3	1	4	270	0.00	29.960 
14:50	81.6	81.6	84.7	65	68.7	1	4	270	0.00	29.960 
14:55	81.8	81.8	85.1	65	68.9	1	4	315	0.00	29.960 
15:00	81.8	81.8	85.1	65	68.9	0	1	22	0.00	29.958 
15:05	81.2	81.2	83.8	63	67.4	1	7	270	0.00	29.958 
15:10	81.2	81.2	84.0	64	67.8	1	3	292	0.00	29.958 
15:15	81.4	81.4	84.1	63	67.6	1	4	292	0.00	29.956 
15:20	81.6	81.6	84.6	64	68.2	1	3	292	0.00	29.956 
15:25	81.8	81.8	85.1	65	68.9	1	4	292	0.00	29.956 
15:30	81.4	81.4	84.3	64	68.0	0	2	292	0.00	29.950 
15:35	81.6	81.6	84.4	63	67.8	0	2	315	0.00	29.950 
15:40	82.4	82.4	85.4	62	68.0	1	4	270	0.00	29.950 
15:45	83.0	83.0	86.4	62	68.6	2	4	270	0.00	29.944 
15:50	83.4	83.4	86.5	60	68.0	1	4	270	0.00	29.944 
15:55	82.8	82.8	85.2	58	66.5	2	6	315	0.00	29.944 
16:00	82.6	82.6	85.5	61	67.8	1	3	270	0.00	29.942 
16:05	82.8	82.8	85.6	60	67.5	1	4	315	0.00	29.942 
16:10	83.2	83.2	86.0	59	67.4	1	3	315	0.00	29.942 
16:15	83.4	83.4	85.4	55	65.5	2	7	315	0.00	29.942 
16:20	83.4	83.4	86.1	58	67.0	3	6	292	0.00	29.942 
16:25	83.4	83.4	85.8	57	66.5	2	4	315	0.00	29.942 
16:30	83.6	83.6	85.9	56	66.2	2	4	315	0.00	29.937 
16:35	83.6	83.6	86.1	57	66.7	1	4	270	0.00	29.937 
16:40	83.2	83.2	85.3	56	65.8	1	3	0	0.00	29.937 
16:45	82.6	82.6	84.7	57	65.8	1	3	292	0.00	29.941 
16:50	82.8	82.8	85.2	58	66.5	0	3	315	0.00	29.941 
16:55	82.6	82.6	84.9	58	66.3	0	1	315	0.00	29.941 
17:00	82.2	82.2	84.5	59	66.4	0	3	315	0.00	29.940 
17:05	81.6	81.6	83.7	59	65.9	0	4	22	0.00	29.940 
17:10	81.1	81.1	83.3	61	66.4	0	1	22	0.00	29.940 
17:15	81.1	81.1	83.5	62	66.8	1	2	22	0.00	29.935 
17:20	81.2	81.2	82.7	56	64.0	1	4	292	0.00	29.935 
17:25	82.0	82.0	83.7	56	64.7	1	5	292	0.00	29.935 
17:30	82.4	82.4	84.2	56	65.1	1	4	292	0.00	29.929 
17:35	82.6	82.6	84.1	54	64.2	2	5	315	0.00	29.929 
17:40	82.2	82.2	83.8	55	64.4	1	6	292	0.00	29.929 
17:45	81.8	81.8	83.6	57	65.0	0	2	292	0.00	29.931 
17:50	81.6	81.6	83.4	57	64.9	0	2	292	0.00	29.931 
17:55	82.0	82.0	83.9	57	65.2	1	3	292	0.00	29.931 
18:00	82.4	82.4	84.2	56	65.1	0	2	292	0.00	29.931 
18:05	82.4	82.4	84.4	57	65.6	0	1	292	0.00	29.931 
18:10	82.6	82.6	84.1	54	64.2	1	3	0	0.00	29.931 
18:15	82.4	82.4	83.5	52	63.0	0	2	315	0.00	29.937 
18:20	82.4	82.4	83.9	54	64.1	0	2	315	0.00	29.937 
18:25	82.4	82.4	83.7	53	63.5	1	3	338	0.00	29.937 
18:30	82.4	82.4	83.9	54	64.1	0	2	338	0.00	29.942 
18:35	82.4	82.4	83.4	51	62.4	2	4	270	0.00	29.942 
18:40	82.4	82.4	83.4	51	62.4	1	3	315	0.00	29.942 
18:45	82.4	82.4	83.5	52	63.0	1	3	315	0.00	29.945 
18:50	82.4	82.4	83.5	52	63.0	2	4	315	0.00	29.945 
18:55	82.2	82.2	83.8	55	64.4	1	3	315	0.00	29.945 
19:00	81.8	81.8	83.5	56	64.5	1	6	292	0.00	29.944 
19:05	81.6	81.6	83.2	56	64.4	1	4	315	0.00	29.944 
19:10	81.8	81.8	83.3	55	64.0	1	3	292	0.00	29.944 
19:15	81.6	81.6	83.2	56	64.4	2	5	292	0.00	29.946 
19:20	81.2	81.2	82.7	56	64.0	1	4	292	0.00	29.946 
19:25	81.1	81.1	82.8	57	64.4	0	2	292	0.00	29.946 
19:30	80.9	80.9	82.4	56	63.7	1	6	270	0.00	29.949 
19:35	80.5	80.5	81.8	55	62.8	1	4	292	0.00	29.949 
19:40	80.1	80.1	81.4	55	62.4	1	3	292	0.00	29.949 
19:45	79.8	79.8	81.0	54	61.7	1	3	292	0.00	29.953 
19:50	79.6	79.6	80.8	54	61.5	1	2	292	0.00	29.953 
19:55	79.4	79.4	80.5	53	60.8	1	2	292	0.00	29.953 
20:00	79.2	79.2	80.4	53	60.6	1	3	292	0.00	29.962 
20:05	79.0	79.0	80.1	52	59.8	1	3	292	0.00	29.962 
20:10	78.6	78.6	79.8	53	60.0	0	3	292	0.00	29.962 
20:15	78.3	78.3	79.6	53	59.7	0	1	292	0.00	29.963 
20:20	78.1	78.1	79.5	54	60.1	0	1	292	0.00	29.963 
20:25	77.7	77.7	79.2	54	59.7	0	2	292	0.00	29.963 
20:30	77.6	77.6	79.1	54	59.6	0	1	292	0.00	29.969 
20:35	77.4	77.4	79.0	55	59.9	0	1	292	0.00	29.969 
20:40	77.0	77.0	78.7	56	60.1	0	1	292	0.00	29.969 
20:45	76.8	76.8	78.6	56	59.9	0	1	292	0.00	29.977 
20:50	76.5	76.5	78.4	57	60.1	0	2	292	0.00	29.977 
20:55	76.3	76.3	78.3	57	59.9	0	2	292	0.00	29.977 
21:00	76.0	76.0	78.1	56	59.2	0	1	292	0.00	29.981 
21:05	75.8	75.8	77.9	56	59.0	0	1	292	0.00	29.981 
21:10	75.6	75.6	77.8	56	58.8	0	1	292	0.00	29.981 
21:15	75.4	75.4	77.7	56	58.6	0	1	292	0.00	29.984 
21:20	75.3	75.3	77.7	56	58.5	0	1	292	0.00	29.984 
21:25	75.1	75.1	77.5	57	58.8	0	1	292	0.00	29.984 
21:30	74.7	74.7	74.7	57	58.4	0	1	292	0.00	29.989 
21:35	74.6	74.6	74.6	58	58.8	0	1	292	0.00	29.989 
21:40	74.4	74.4	74.4	58	58.6	0	1	292	0.00	29.989 
21:45	74.0	74.0	74.0	58	58.3	0	1	292	0.00	29.995 
21:50	74.0	74.0	74.0	58	58.3	0	1	292	0.00	29.995 
21:55	73.9	73.9	73.9	58	58.2	0	1	292	0.00	29.995 
22:00	73.5	73.5	73.5	59	58.3	0	1	292	0.00	29.998 
22:05	73.3	73.3	73.3	59	58.1	0	1	292	0.00	29.998 
22:10	73.2	73.2	73.2	59	58.0	0	1	292	0.00	29.998 
22:15	73.0	73.0	73.0	60	58.3	0	1	292	0.00	30.001 
22:20	72.8	72.8	72.8	60	58.1	0	1	292	0.00	30.001 
22:25	72.7	72.7	72.7	60	58.0	0	1	292	0.00	30.001 
22:30	72.5	72.5	72.5	61	58.3	0	1	292	0.00	30.006 
22:35	72.3	72.3	72.3	61	58.1	0	1	292	0.00	30.006 
22:40	72.1	72.1	72.1	61	57.9	0	1	292	0.00	30.006 
22:45	72.0	72.0	72.0	61	57.8	0	1	292	0.00	30.007 
22:50	71.8	71.8	71.8	62	58.1	0	1	292	0.00	30.007 
22:55	71.6	71.6	71.6	62	57.9	0	1	292	0.00	30.007 
23:00	71.6	71.6	71.6	62	57.9	0	1	292	0.00	30.007 
23:05	71.5	71.5	71.5	62	57.8	0	1	292	0.00	30.007 
23:10	71.3	71.3	71.3	62	57.6	0	1	292	0.00	30.007 
23:15	71.1	71.1	71.1	63	57.9	0	1	292	0.00	30.013 
23:20	70.9	70.9	70.9	63	57.7	0	1	292	0.00	30.013 
23:25	70.6	70.6	70.6	64	57.8	0	0	---	0.00	30.013 
23:30	70.4	70.4	70.4	64	57.6	0	1	292	0.00	30.013 
23:35	70.3	70.3	70.3	65	58.0	0	1	292	0.00	30.013 
23:40	70.1	70.1	70.1	65	57.8	0	1	292	0.00	30.013 
23:45	69.9	69.9	69.9	65	57.6	0	1	292	0.00	30.015 
23:50	69.8	69.8	69.8	66	57.9	0	1	292	0.00	30.015 
23:55	69.8	69.8	69.8	66	57.9	0	1	292	0.00	30.015 

CoCoRaHS
IN-AL-39
A2 Web Hosting
Creative Commons License
GoDaddy
search engine by freefind advanced

loaded 2018-11-13 22:18:18 • last modified 2010-11-18 10:43:29
Privacy PolicyDisclaimer
• wx.awcolley.com is powered by PmWiki v.2002016 •
• all content (unless otherwise noted) © 2018 A W Colley